Hlavní strana
METAR-TAF:

METAR-TAF

Letiště :

Vadsø, Norsko

zeměpisná šířka: 70-04N, zeměpisná délka: 029-51E, výška: 3 m

Aktuální stav počasí

Zpráva byla vytvořena před 15 minutami, v 15:50 UTC
Jihovýchodní vítr 10 kt
Teplota 9°C
Vlhkost vzduchu 76%
Tlak 1002 hPa
Viditelnost 10 km a více
Oblačno až skoro zataženo ve výšce 2800 ft
přeháňky v blízkosti

METAR: ENVD 241550Z 14010KT 9999 VCSH BKN028 09/05 Q1002

Čas: 18:05 (16:05 UTC)

Předpověď počasí

Zpráva byla vytvořena před 2 hodinami a 5 minutami, v 14:00 UTC
Předpověď platná od 24 v 15 UTC do 24 v 23 UTC
Jihojihovýchodní vítr 9 kt
Viditelnost 10 km a více
Skoro jasno ve výšce 2000 ft
Oblačno až skoro zataženo ve výšce 3000 ft

TAF: ENVD 241400Z 2415/2423 16009KT 9999 FEW020 BKN030

Stav a předpovědi počasí z více než 4 000 letišť (zprávy METAR a TAF).

Červené a žluté tečky na mapě představují dostupné meteorologické stanice.

Když kurzor umístíte na tečku, zobrazí se název stanice.

Pak kliknutím zobrazíte stav a předpověď počasí.

Chcete-li změnit mapu, kliknutím na zelené tlačítko se znaménkem +mapu přiblížíte, kliknutím na zelené tlačítko se znaménkem – mapu oddálíte a kliknutím na zelené šipky přejdete na sousední mapy.


METAR-TAF: